createdAt,value
2023-03-10T00:02:23.451Z,98905.16
2023-03-10T00:07:27.164Z,98898.66
2023-03-10T00:12:30.291Z,98904.28
2023-03-10T00:17:33.494Z,98903.81
2023-03-10T00:22:36.461Z,98903.84
2023-03-10T00:27:39.610Z,98919.44
2023-03-10T00:32:42.707Z,98913.22
2023-03-10T00:37:45.731Z,98911.63
2023-03-10T00:42:48.746Z,98913.81
2023-03-10T00:47:51.693Z,98900.13
2023-03-10T00:52:54.651Z,98895.06
2023-03-10T00:57:57.674Z,98882.88
2023-03-10T01:03:00.689Z,98875.00
2023-03-10T01:08:03.589Z,98867.44
2023-03-10T01:13:07.004Z,98867.13
2023-03-10T01:18:11.214Z,98861.72
2023-03-10T01:23:18.036Z,98867.16
2023-03-10T01:28:21.871Z,98867.50
2023-03-10T01:33:24.654Z,98857.13
2023-03-10T01:38:28.247Z,98853.34
2023-03-10T01:43:43.498Z,98844.28
2023-03-10T01:48:46.559Z,98826.19
2023-03-10T01:53:49.706Z,98829.47
2023-03-10T01:58:54.131Z,98831.59
2023-03-10T02:04:41.400Z,98823.50
2023-03-10T02:09:48.206Z,98823.97
2023-03-10T02:14:53.152Z,98807.19
2023-03-10T02:20:16.758Z,98817.00
2023-03-10T02:25:51.514Z,98814.22
2023-03-10T02:30:56.614Z,98828.16
2023-03-10T02:36:19.998Z,98811.38
2023-03-10T02:41:35.317Z,98800.66
2023-03-10T02:46:38.087Z,98793.56
2023-03-10T02:51:45.937Z,98781.38
2023-03-10T02:56:48.837Z,98781.34
2023-03-10T03:01:51.936Z,98771.16
2023-03-10T03:06:54.828Z,98777.03
2023-03-10T03:11:57.984Z,98767.16
2023-03-10T03:17:01.038Z,98766.16
2023-03-10T03:22:05.370Z,98763.16
2023-03-10T03:27:08.251Z,98753.94
2023-03-10T03:32:11.544Z,98755.53
2023-03-10T03:37:14.580Z,98746.28
2023-03-10T03:42:17.681Z,98727.34
2023-03-10T03:47:20.569Z,98722.56
2023-03-10T03:52:23.530Z,98712.69
2023-03-10T03:57:27.012Z,98703.47
2023-03-10T04:02:30.030Z,98710.53
2023-03-10T04:07:33.507Z,98692.47
2023-03-10T04:12:36.481Z,98684.09
2023-03-10T04:17:39.987Z,98670.78
2023-03-10T04:22:43.022Z,98674.81
2023-03-10T04:27:46.046Z,98678.72
2023-03-10T04:32:49.446Z,98675.44
2023-03-10T04:37:53.218Z,98669.22
2023-03-10T04:42:56.294Z,98660.38
2023-03-10T04:48:00.298Z,98642.34
2023-03-10T04:53:03.272Z,98645.94
2023-03-10T04:58:06.209Z,98643.50
2023-03-10T05:03:09.118Z,98644.75
2023-03-10T05:08:12.387Z,98640.63
2023-03-10T05:13:15.420Z,98641.94
2023-03-10T05:18:18.385Z,98635.53
2023-03-10T05:23:23.798Z,98639.19
2023-03-10T05:28:26.735Z,98638.75
2023-03-10T05:33:31.404Z,98617.47
2023-03-10T05:38:35.806Z,98613.53
2023-03-10T05:43:39.552Z,98608.50
2023-03-10T05:48:42.476Z,98602.31
2023-03-10T05:53:45.418Z,98599.28
2023-03-10T05:58:50.983Z,98598.53
2023-03-10T06:03:53.936Z,98610.56
2023-03-10T06:08:57.396Z,98597.66
2023-03-10T06:14:01.113Z,98584.72
2023-03-10T06:19:04.163Z,98583.09
2023-03-10T06:24:07.249Z,98584.75
2023-03-10T06:29:11.624Z,98582.72
2023-03-10T06:34:14.921Z,98575.41
2023-03-10T06:39:17.954Z,98567.66
2023-03-10T06:44:20.838Z,98576.31
2023-03-10T06:49:28.154Z,98576.03
2023-03-10T06:54:31.160Z,98568.13
2023-03-10T06:59:34.096Z,98570.25
2023-03-10T07:04:37.106Z,98563.22
2023-03-10T07:09:40.747Z,98566.75
2023-03-10T07:14:43.733Z,98566.09
2023-03-10T07:19:46.692Z,98556.28
2023-03-10T07:24:53.523Z,98551.91
2023-03-10T07:29:56.598Z,98544.28
2023-03-10T07:34:59.890Z,98541.88
2023-03-10T07:40:02.868Z,98540.88
2023-03-10T07:45:06.967Z,98531.53
2023-03-10T07:50:11.019Z,98528.91
2023-03-10T07:55:14.106Z,98528.38
2023-03-10T08:00:18.054Z,98521.47
2023-03-10T08:05:21.515Z,98507.16
2023-03-10T08:10:25.052Z,98498.81
2023-03-10T08:15:28.074Z,98490.47
2023-03-10T08:20:32.476Z,98483.44
2023-03-10T08:25:35.579Z,98471.56
2023-03-10T08:30:49.105Z,98464.41
2023-03-10T08:36:11.149Z,98447.78
2023-03-10T08:41:39.063Z,98445.03
2023-03-10T08:46:46.664Z,98432.22
2023-03-10T08:51:50.241Z,98427.38
2023-03-10T08:56:53.754Z,98421.19
2023-03-10T09:01:56.817Z,98424.56
2023-03-10T09:06:59.820Z,98405.66
2023-03-10T09:12:04.161Z,98386.88
2023-03-10T09:17:07.373Z,98374.69
2023-03-10T09:22:10.433Z,98374.00
2023-03-10T09:27:13.941Z,98360.22
2023-03-10T09:32:17.052Z,98367.09
2023-03-10T09:37:20.131Z,98359.19
2023-03-10T09:42:38.230Z,98350.03
2023-03-10T09:48:36.834Z,98352.31
2023-03-10T09:53:39.788Z,98339.59
2023-03-10T09:59:09.923Z,98340.16
2023-03-10T10:04:18.222Z,98337.81
2023-03-10T10:09:42.321Z,98321.91
2023-03-10T10:14:56.748Z,98310.44
2023-03-10T10:20:00.259Z,98303.81
2023-03-10T10:25:09.264Z,98301.13
2023-03-10T10:30:30.269Z,98284.53
2023-03-10T10:35:37.300Z,98280.34
2023-03-10T10:41:07.286Z,98264.94
2023-03-10T10:46:12.475Z,98250.00
2023-03-10T10:51:36.038Z,98240.97
2023-03-10T10:56:55.782Z,98237.66
2023-03-10T11:02:22.861Z,98230.88
2023-03-10T11:07:27.548Z,98204.97
2023-03-10T11:12:53.012Z,98196.81
2023-03-10T11:18:19.228Z,98182.16
2023-03-10T11:23:31.081Z,98170.22
2023-03-10T11:29:10.065Z,98147.03
2023-03-10T11:34:44.337Z,98136.03
2023-03-10T11:40:32.822Z,98138.13
2023-03-10T11:45:54.362Z,98120.34
2023-03-10T11:51:01.103Z,98105.97
2023-03-10T11:56:07.156Z,98091.97
2023-03-10T12:01:16.384Z,98082.47
2023-03-10T12:06:43.296Z,98078.31
2023-03-10T12:11:48.140Z,98065.91
2023-03-10T12:16:53.026Z,98050.59
2023-03-10T12:22:20.919Z,98041.53
2023-03-10T12:27:23.828Z,98033.59
2023-03-10T12:32:43.521Z,98034.47
2023-03-10T12:37:46.576Z,98025.75
2023-03-10T12:42:49.471Z,98009.69
2023-03-10T12:48:19.752Z,98004.47
2023-03-10T12:53:51.835Z,97996.06
2023-03-10T12:59:13.256Z,97989.25
2023-03-10T13:04:22.858Z,97989.81
2023-03-10T13:09:39.261Z,97987.19
2023-03-10T13:14:43.883Z,97961.63
2023-03-10T13:19:59.151Z,97964.06
2023-03-10T13:25:07.665Z,97972.66
2023-03-10T13:30:11.896Z,97959.78
2023-03-10T13:35:37.419Z,97962.75
2023-03-10T13:40:45.220Z,97952.28
2023-03-10T13:45:58.225Z,97934.53
2023-03-10T13:51:17.688Z,97925.41
2023-03-10T13:56:26.479Z,97914.91
2023-03-10T14:01:34.856Z,97913.56
2023-03-10T14:06:38.533Z,97918.66
2023-03-10T14:11:44.971Z,97909.81
2023-03-10T14:16:59.853Z,97915.41
2023-03-10T14:22:03.143Z,97901.75
2023-03-10T14:27:10.678Z,97899.88
2023-03-10T14:32:14.190Z,97898.50
2023-03-10T14:37:17.800Z,97895.28
2023-03-10T14:42:26.780Z,97896.63
2023-03-10T14:47:30.112Z,97893.09
2023-03-10T14:52:33.046Z,97881.53
2023-03-10T14:57:37.139Z,97871.06
2023-03-10T15:02:40.249Z,97848.41
2023-03-10T15:07:43.570Z,97848.34
2023-03-10T15:12:52.419Z,97853.03
2023-03-10T15:17:55.193Z,97839.84
2023-03-10T15:22:58.842Z,97861.72
2023-03-10T15:28:01.952Z,97849.28
2023-03-10T15:33:05.664Z,97852.59
2023-03-10T15:38:08.819Z,97852.13
2023-03-10T15:43:11.887Z,97847.41
2023-03-10T15:48:14.945Z,97843.75
2023-03-10T15:53:17.942Z,97851.34
2023-03-10T15:58:21.000Z,97849.38
2023-03-10T16:03:23.915Z,97852.69
2023-03-10T16:08:27.308Z,97860.09
2023-03-10T16:13:30.942Z,97870.16
2023-03-10T16:18:35.162Z,97879.34
2023-03-10T16:23:38.049Z,97881.72
2023-03-10T16:28:50.859Z,97877.47
2023-03-10T16:33:56.150Z,97882.91
2023-03-10T16:38:59.903Z,97888.41
2023-03-10T16:44:07.788Z,97889.88
2023-03-10T16:49:15.330Z,97890.44
2023-03-10T16:54:21.852Z,97889.69
2023-03-10T16:59:25.362Z,97905.00
2023-03-10T17:04:28.517Z,97911.13
2023-03-10T17:09:31.375Z,97906.88
2023-03-10T17:14:35.101Z,97911.56
2023-03-10T17:19:38.079Z,97930.34
2023-03-10T17:24:41.067Z,97929.44
2023-03-10T17:29:44.009Z,97924.81
2023-03-10T17:34:52.252Z,97926.31
2023-03-10T17:39:55.552Z,97940.38
2023-03-10T17:44:58.499Z,97948.56
2023-03-10T17:50:02.585Z,97949.88
2023-03-10T17:55:06.404Z,97962.72
2023-03-10T18:00:11.051Z,97968.13
2023-03-10T18:05:14.009Z,97966.06
2023-03-10T18:10:17.391Z,97951.94
2023-03-10T18:15:20.543Z,97961.44
2023-03-10T18:20:24.164Z,97964.25
2023-03-10T18:25:27.229Z,97968.88
2023-03-10T18:30:30.229Z,97949.22
2023-03-10T18:35:39.991Z,97967.66
2023-03-10T18:40:44.275Z,97982.13
2023-03-10T18:45:47.342Z,97969.06
2023-03-10T18:50:50.538Z,97967.81
2023-03-10T18:55:54.694Z,97970.41
2023-03-10T19:00:59.051Z,97966.28
2023-03-10T19:06:02.193Z,97961.25
2023-03-10T19:11:06.838Z,97952.75
2023-03-10T19:16:13.877Z,97956.28
2023-03-10T19:21:16.959Z,97960.16
2023-03-10T19:26:20.066Z,97956.69
2023-03-10T19:31:23.299Z,97961.03
2023-03-10T19:36:26.906Z,97945.34
2023-03-10T19:41:31.846Z,97940.25
2023-03-10T19:46:34.956Z,97930.94
2023-03-10T19:51:38.040Z,97933.28
2023-03-10T19:56:41.202Z,97912.56
2023-03-10T20:01:48.845Z,97926.28
2023-03-10T20:06:51.986Z,97947.75
2023-03-10T20:11:55.170Z,97941.84
2023-03-10T20:16:58.249Z,97917.38
2023-03-10T20:22:01.297Z,97892.94
2023-03-10T20:27:04.284Z,97905.22
2023-03-10T20:32:07.683Z,97865.31
2023-03-10T20:37:10.736Z,97873.88
2023-03-10T20:42:13.720Z,97880.22
2023-03-10T20:47:17.026Z,97911.63
2023-03-10T20:52:20.043Z,97905.72
2023-03-10T20:57:22.986Z,97900.84
2023-03-10T21:02:26.197Z,97897.22
2023-03-10T21:07:29.157Z,97898.47
2023-03-10T21:12:32.378Z,97907.50
2023-03-10T21:17:35.383Z,97908.94
2023-03-10T21:22:40.170Z,97912.19
2023-03-10T21:27:44.357Z,97922.75
2023-03-10T21:32:47.415Z,97916.44
2023-03-10T21:37:51.517Z,97931.88
2023-03-10T21:42:54.571Z,97926.59
2023-03-10T21:47:57.497Z,97915.13
2023-03-10T21:53:00.769Z,97914.47
2023-03-10T21:58:05.727Z,97910.16
2023-03-10T22:03:08.657Z,97903.41
2023-03-10T22:08:11.741Z,97913.38
2023-03-10T22:13:14.974Z,97903.94
2023-03-10T22:18:18.202Z,97905.06
2023-03-10T22:23:21.591Z,97908.28
2023-03-10T22:28:24.542Z,97910.44
2023-03-10T22:33:27.574Z,97892.38
2023-03-10T22:38:30.610Z,97887.50
2023-03-10T22:43:34.802Z,97876.47
2023-03-10T22:48:38.198Z,97880.31
2023-03-10T22:53:41.539Z,97878.47
2023-03-10T22:58:44.685Z,97890.56
2023-03-10T23:03:48.313Z,97889.59
2023-03-10T23:08:51.911Z,97908.22
2023-03-10T23:13:55.119Z,97905.13
2023-03-10T23:18:58.442Z,97917.13
2023-03-10T23:24:01.750Z,97924.28
2023-03-10T23:29:04.920Z,97927.81
2023-03-10T23:34:07.831Z,97932.53
2023-03-10T23:39:13.534Z,97942.97
2023-03-10T23:44:16.696Z,97946.31
2023-03-10T23:49:22.154Z,97948.03
2023-03-10T23:54:25.089Z,97948.72
2023-03-10T23:59:28.342Z,97941.03
